Time;durP1;ratioP1;P1;durP2;ratioP2;P2;SDS_P1;SDS_P2;PMS_P1;PMS_P2;Temp;Humidity;BMP_temperature;BMP_pressure;BME280_temperature;BME280_humidity;BME280_pressure;Samples;Min_cycle;Max_cycle;Signal;HPM_P1;HPM_P2
2022/03/17 00:01:38;;;;;;;14.93;7.00;;;;;;;11.75;57.38;100648.50;5034870;28;20306;-76
2022/03/17 00:04:03;;;;;;;12.73;6.25;;;;;;;11.70;57.40;100648.28;5034367;28;20029;-76
2022/03/17 00:06:29;;;;;;;14.48;6.57;;;;;;;11.68;57.34;100650.34;5034351;28;20381;-76
2022/03/17 00:08:54;;;;;;;15.45;7.13;;;;;;;11.66;57.72;100644.31;5034290;28;20084;-76
2022/03/17 00:11:20;;;;;;;12.70;5.93;;;;;;;11.58;57.62;100645.38;5035136;28;20121;-78
2022/03/17 00:13:46;;;;;;;;;;;;;;;11.80;56.89;100649.56;5035582;28;20287;-77
2022/03/17 00:16:12;;;;;;;14.52;7.10;;;;;;;11.71;57.04;100649.94;5034640;28;20403;-74
2022/03/17 00:18:37;;;;;;;15.32;6.80;;;;;;;11.73;57.36;100661.38;5034330;28;20026;-75
2022/03/17 00:21:03;;;;;;;14.40;7.00;;;;;;;11.73;57.33;100662.19;5034205;28;20430;-75
2022/03/17 00:23:29;;;;;;;15.50;6.80;;;;;;;11.62;57.76;100659.28;5033930;28;20035;-76
2022/03/17 00:25:55;;;;;;;14.90;6.75;;;;;;;11.70;56.89;100659.91;5033875;28;20034;-74
2022/03/17 00:28:20;;;;;;;22.27;6.82;;;;;;;11.73;57.51;100653.25;5034015;28;20033;-77
2022/03/17 00:30:46;;;;;;;16.58;7.40;;;;;;;11.70;57.24;100669.88;5034311;28;20064;-76
2022/03/17 00:33:11;;;;;;;14.30;6.22;;;;;;;11.60;57.80;100664.06;5034205;28;20041;-75
2022/03/17 00:35:38;;;;;;;12.32;6.05;;;;;;;11.67;57.78;100667.56;5033010;28;20029;-75
2022/03/17 00:38:08;;;;;;;12.65;5.70;;;;;;;11.72;57.39;100665.94;5034112;28;20022;-77
2022/03/17 00:40:35;;;;;;;14.90;6.70;;;;;;;11.67;57.33;100665.72;5034811;28;20033;-76
2022/03/17 00:43:02;;;;;;;14.60;7.05;;;;;;;11.63;57.64;100655.56;5033658;28;20115;-75
2022/03/17 00:45:29;;;;;;;16.35;6.88;;;;;;;11.64;57.49;100655.34;5034804;28;20383;-76
2022/03/17 00:47:54;;;;;;;13.80;6.20;;;;;;;11.64;57.86;100665.31;5033854;28;20052;-75
2022/03/17 00:50:20;;;;;;;15.15;7.78;;;;;;;11.60;57.55;100666.75;5034375;28;20037;-77
2022/03/17 00:52:46;;;;;;;18.45;7.18;;;;;;;11.53;57.63;100665.91;5034020;28;20041;-77
2022/03/17 00:55:11;;;;;;;13.93;6.70;;;;;;;11.60;57.54;100651.41;5034115;28;20422;-77
2022/03/17 00:57:37;;;;;;;14.02;6.75;;;;;;;11.55;58.23;100667.38;5033999;28;20460;-77
2022/03/17 01:00:05;;;;;;;17.52;7.20;;;;;;;11.57;57.98;100669.88;5033568;28;20071;-77
2022/03/17 01:02:31;;;;;;;15.80;7.93;;;;;;;11.55;57.83;100661.97;5033457;28;20041;-76
2022/03/17 01:04:56;;;;;;;15.73;6.53;;;;;;;11.52;57.87;100658.84;5033715;28;20461;-77
2022/03/17 01:07:21;;;;;;;15.23;6.80;;;;;;;11.57;58.04;100653.66;5033189;28;20057;-77
2022/03/17 01:09:47;;;;;;;14.88;6.70;;;;;;;11.47;58.07;100657.59;5033913;28;20700;-77
2022/03/17 01:12:13;;;;;;;15.25;6.90;;;;;;;11.55;57.96;100650.34;5033776;28;20036;-77
2022/03/17 01:14:38;;;;;;;15.88;7.13;;;;;;;11.48;57.94;100650.31;5033276;28;20520;-78
2022/03/17 01:17:04;;;;;;;12.82;6.53;;;;;;;11.39;58.30;100644.31;5033238;28;20049;-77
2022/03/17 01:19:29;;;;;;;14.45;7.07;;;;;;;11.48;58.01;100650.31;5033570;28;20431;-77
2022/03/17 01:21:55;;;;;;;15.70;7.45;;;;;;;11.44;57.96;100633.75;5033538;28;20033;-77
2022/03/17 01:24:20;;;;;;;14.17;7.13;;;;;;;11.46;58.15;100647.81;5033663;28;20029;-77
2022/03/17 01:26:46;;;;;;;17.40;7.15;;;;;;;11.38;58.90;100629.16;5032253;28;20347;-78
2022/03/17 01:29:12;;;;;;;16.33;7.50;;;;;;;11.47;58.25;100646.78;5033485;28;20087;-77
2022/03/17 01:31:38;;;;;;;14.48;7.38;;;;;;;11.41;58.40;100636.84;5033331;28;20112;-77
2022/03/17 01:34:03;;;;;;;16.15;7.38;;;;;;;11.46;58.50;100625.44;5033208;28;20109;-78
2022/03/17 01:36:29;;;;;;;16.15;7.13;;;;;;;11.40;58.37;100627.09;5033101;28;20065;-77
2022/03/17 01:38:54;;;;;;;13.15;6.57;;;;;;;11.43;58.47;100632.06;5033445;28;20376;-79
2022/03/17 01:41:20;;;;;;;15.90;7.75;;;;;;;11.42;58.38;100630.41;5033712;28;20043;-79
2022/03/17 01:43:45;;;;;;;17.25;7.90;;;;;;;11.40;59.03;100632.47;5033455;28;20376;-77
2022/03/17 01:46:14;;;;;;;16.13;7.68;;;;;;;11.45;58.47;100640.78;5032970;28;20040;-77
2022/03/17 01:48:40;;;;;;;13.68;6.60;;;;;;;11.39;58.70;100635.38;5033353;28;20068;-78
2022/03/17 01:51:05;;;;;;;16.13;7.32;;;;;;;11.30;58.99;100623.94;5033513;28;20068;-77
2022/03/17 01:53:30;;;;;;;16.02;7.68;;;;;;;11.32;59.23;100626.44;5033258;28;20045;-77
2022/03/17 01:55:58;;;;;;;16.70;7.93;;;;;;;11.30;59.03;100629.31;5033304;28;20037;-77
2022/03/17 01:58:24;;;;;;;15.60;7.18;;;;;;;11.34;58.70;100621.66;5033282;28;20111;-77
2022/03/17 02:00:50;;;;;;;15.98;6.78;;;;;;;11.27;59.54;100629.75;5033391;28;20034;-78
2022/03/17 02:03:16;;;;;;;19.40;7.80;;;;;;;11.27;59.33;100615.44;5032963;28;20029;-77
2022/03/17 02:05:43;;;;;;;16.23;7.35;;;;;;;11.23;59.22;100620.41;5031524;28;20155;-77
2022/03/17 02:08:09;;;;;;;16.92;8.32;;;;;;;11.38;59.11;100629.16;5032946;28;20033;-76
2022/03/17 02:13:19;;;;;;;14.65;6.97;;;;;;;11.28;59.03;100622.50;5033439;28;20044;-78
2022/03/17 02:15:50;;;;;;;16.15;7.45;;;;;;;11.32;59.27;100640.75;5032883;28;20029;-76
2022/03/17 02:18:16;;;;;;;16.23;7.80;;;;;;;11.34;59.13;100618.97;5032920;28;20114;-77
2022/03/17 02:20:42;;;;;;;15.77;8.07;;;;;;;11.26;59.36;100624.56;5033494;28;20026;-79
2022/03/17 02:25:56;;;;;;;17.40;7.28;;;;;;;11.28;59.18;100633.28;5036553;28;20136;-76
2022/03/17 02:28:22;;;;;;;17.23;7.80;;;;;;;11.23;59.07;100625.81;5036426;28;20029;-76
2022/03/17 02:30:48;;;;;;;14.63;7.30;;;;;;;11.30;59.40;100629.31;5036271;28;20468;-77
2022/03/17 02:33:17;;;;;;;16.73;7.25;;;;;;;11.17;59.71;100637.41;5036480;28;20049;-77
2022/03/17 02:35:49;;;;;;;17.65;7.45;;;;;;;11.27;59.36;100631.63;5036527;28;20041;-77
2022/03/17 02:38:18;;;;;;;17.60;7.97;;;;;;;11.33;58.81;100637.00;5035952;28;20079;-77
2022/03/17 02:40:50;;;;;;;17.35;7.93;;;;;;;11.29;59.17;100626.84;5035958;28;20100;-76
2022/03/17 02:43:15;;;;;;;15.88;8.18;;;;;;;11.26;59.04;100621.88;5036152;28;20041;-77
2022/03/17 02:45:43;;;;;;;15.77;7.13;;;;;;;11.21;59.19;100611.69;5036443;28;20036;-77
2022/03/17 02:48:09;;;;;;;16.98;6.90;;;;;;;11.27;59.22;100613.56;5036195;28;20041;-75
2022/03/17 02:50:35;;;;;;;20.25;8.38;;;;;;;11.34;59.14;100617.09;5035719;28;20633;-76
2022/03/17 02:53:10;;;;;;;14.73;6.95;;;;;;;11.24;59.88;100610.44;5035938;28;20119;-77
2022/03/17 02:55:38;;;;;;;14.32;6.75;;;;;;;11.28;59.41;100612.53;5036174;28;20143;-76
2022/03/17 02:58:05;;;;;;;13.93;7.22;;;;;;;11.30;59.30;100615.00;5035856;28;20025;-77
2022/03/17 03:00:31;;;;;;;15.35;7.25;;;;;;;11.31;59.15;100622.06;5035954;28;20091;-76
2022/03/17 03:02:57;;;;;;;17.45;7.43;;;;;;;11.19;59.87;100618.31;5035865;28;20134;-77
2022/03/17 03:05:22;;;;;;;17.08;8.15;;;;;;;11.18;59.61;100622.03;5036294;28;20353;-76
2022/03/17 03:07:48;;;;;;;16.15;7.95;;;;;;;11.26;60.06;100627.25;5035760;28;20056;-78
2022/03/17 03:10:14;;;;;;;;;;;;;;;11.17;59.91;100625.78;5036459;28;20072;-78
2022/03/17 03:12:40;;;;;;;15.77;7.28;;;;;;;11.22;60.03;100628.69;5036234;28;19917;-76
2022/03/17 03:15:06;;;;;;;14.23;7.40;;;;;;;11.15;60.29;100634.06;5036242;28;20037;-77
2022/03/17 03:17:32;;;;;;;17.30;7.93;;;;;;;11.24;60.10;100635.56;5036090;28;20037;-76
2022/03/17 03:19:58;;;;;;;15.20;7.18;;;;;;;11.09;60.56;100624.94;5036477;28;20032;-77
2022/03/17 03:22:28;;;;;;;13.95;7.30;;;;;;;11.00;61.05;100628.84;5035690;28;20113;-76
2022/03/17 03:24:54;;;;;;;15.40;7.40;;;;;;;11.29;60.14;100638.44;5037014;28;20078;-77
2022/03/17 03:27:19;;;;;;;;;;;;;;;11.19;60.79;100632.63;5036575;28;20104;-77
2022/03/17 03:29:45;;;;;;;16.00;7.07;;;;;;;11.26;60.09;100635.34;5036006;28;20012;-76
2022/03/17 03:32:11;;;;;;;17.50;7.43;;;;;;;11.10;60.80;100642.78;5034233;28;20089;-78
2022/03/17 03:34:37;;;;;;;15.25;7.20;;;;;;;11.20;60.59;100639.69;5034874;28;20446;-77
2022/03/17 03:39:47;;;;;;;18.25;7.75;;;;;;;11.18;60.89;100633.66;5034901;28;20072;-77
2022/03/17 03:42:12;;;;;;;15.63;7.13;;;;;;;11.19;60.50;100637.19;5035137;28;20140;-77
2022/03/17 03:44:38;;;;;;;16.08;7.75;;;;;;;11.23;60.42;100649.25;5034801;28;20714;-77
2022/03/17 03:47:05;;;;;;;18.50;7.00;;;;;;;11.25;60.77;100657.97;5034953;28;20450;-77
2022/03/17 03:49:32;;;;;;;17.27;8.23;;;;;;;11.26;61.04;100673.97;5035180;28;20053;-77
2022/03/17 03:51:57;;;;;;;17.13;7.32;;;;;;;11.21;60.85;100676.41;5034601;28;20526;-76
2022/03/17 03:54:23;;;;;;;18.55;8.27;;;;;;;11.32;60.92;100675.00;5034908;28;20021;-76
2022/03/17 03:56:53;;;;;;;21.25;8.52;;;;;;;11.30;60.64;100680.59;5034963;28;20044;-77
2022/03/17 03:59:21;;;;;;;15.57;7.35;;;;;;;11.18;61.05;100682.22;5017441;28;20371;-77
2022/03/17 04:01:48;;;;;;;15.05;7.43;;;;;;;11.28;61.41;100690.78;5034422;28;20095;-77
2022/03/17 04:04:18;;;;;;;14.75;7.03;;;;;;;11.29;60.83;100692.41;5034749;28;20113;-77
2022/03/17 04:06:47;;;;;;;17.33;7.43;;;;;;;11.24;61.49;100692.22;5034001;28;20519;-76
2022/03/17 04:09:24;;;;;;;17.50;8.10;;;;;;;11.20;61.61;100699.03;5033283;28;20116;-79
2022/03/17 04:11:50;;;;;;;15.32;7.60;;;;;;;11.31;60.96;100701.13;5034155;28;20468;-77
2022/03/17 04:14:16;;;;;;;16.10;7.45;;;;;;;11.27;61.82;100697.19;5034673;28;20044;-77
2022/03/17 04:16:43;;;;;;;15.00;7.45;;;;;;;11.29;61.70;100705.91;5034430;28;20033;-77
2022/03/17 04:19:11;;;;;;;17.38;8.52;;;;;;;11.32;61.69;100712.75;5033164;28;20025;-76
2022/03/17 04:21:37;;;;;;;18.38;8.13;;;;;;;11.25;61.38;100709.22;5034368;28;20067;-77
2022/03/17 04:24:03;;;;;;;;;;;;;;;11.10;61.92;100712.91;5033747;28;20036;-77
2022/03/17 04:26:28;;;;;;;19.58;8.20;;;;;;;11.19;62.20;100727.03;5034057;28;19991;-76
2022/03/17 04:28:54;;;;;;;16.95;7.97;;;;;;;11.11;61.79;100736.13;5034297;28;20030;-76
2022/03/17 04:31:22;;;;;;;18.27;7.55;;;;;;;11.00;62.57;100735.88;5034159;28;20484;-77
2022/03/17 04:33:49;;;;;;;17.52;8.18;;;;;;;11.04;63.16;100737.13;5034415;28;20040;-77
2022/03/17 04:36:14;;;;;;;19.58;8.55;;;;;;;10.98;63.55;100744.16;5034101;28;20034;-78
2022/03/17 04:38:40;;;;;;;19.85;8.18;;;;;;;10.97;63.83;100745.19;5034014;28;20041;-77
2022/03/17 04:41:06;;;;;;;21.67;8.48;;;;;;;10.98;63.87;100752.25;5034008;28;20064;-76
2022/03/17 04:43:32;;;;;;;20.30;9.00;;;;;;;10.91;64.11;100766.72;5033363;28;20034;-77
2022/03/17 04:45:58;;;;;;;22.67;9.82;;;;;;;10.83;65.43;100769.56;5034111;28;20044;-77
2022/03/17 04:48:24;;;;;;;20.73;8.60;;;;;;;10.67;66.14;100766.16;5033885;28;20037;-76
2022/03/17 04:50:49;;;;;;;21.83;9.73;;;;;;;10.71;66.25;100772.84;5032674;28;20144;-76
2022/03/17 04:53:30;;;;;;;18.97;9.20;;;;;;;10.66;67.04;100772.59;5033930;28;20033;-77
2022/03/17 04:55:58;;;;;;;18.20;8.52;;;;;;;10.55;68.15;100783.91;5033620;28;20264;-77
2022/03/17 04:58:24;;;;;;;18.58;8.77;;;;;;;10.38;69.08;100782.53;5033725;28;20036;-78
2022/03/17 05:00:52;;;;;;;18.17;7.97;;;;;;;10.27;70.22;100793.81;5032464;28;20376;-77
2022/03/17 05:03:19;;;;;;;21.38;8.65;;;;;;;10.20;70.65;100795.63;5033409;28;20040;-78
2022/03/17 05:05:44;;;;;;;20.05;8.80;;;;;;;10.08;71.99;100798.78;5033358;28;20036;-79
2022/03/17 05:08:10;;;;;;;17.70;8.05;;;;;;;9.86;73.88;100815.94;5033271;28;20132;-76
2022/03/17 05:10:36;;;;;;;20.50;9.45;;;;;;;9.86;74.47;100815.94;5033663;28;20041;-76
2022/03/17 05:13:09;;;;;;;23.27;10.05;;;;;;;9.73;74.88;100810.44;5033412;28;20045;-76
2022/03/17 05:15:36;;;;;;;21.05;9.85;;;;;;;9.65;75.81;100822.16;5033189;28;20109;-76
2022/03/17 05:18:03;;;;;;;20.85;9.50;;;;;;;9.57;77.39;100826.81;5033175;28;20030;-76
2022/03/17 05:20:29;;;;;;;23.35;10.02;;;;;;;9.52;77.65;100821.16;5033770;28;20113;-77
2022/03/17 05:22:54;;;;;;;21.73;10.07;;;;;;;9.40;79.33;100826.19;5033000;28;20387;-77
2022/03/17 05:25:20;;;;;;;21.10;10.10;;;;;;;9.28;80.08;100831.22;5033777;28;20040;-82
2022/03/17 05:27:48;;;;;;;27.50;11.07;;;;;;;9.16;81.17;100845.28;5032378;28;20367;-76
2022/03/17 05:30:15;;;;;;;24.30;9.85;;;;;;;9.00;82.53;100841.75;5033612;28;20029;-76
2022/03/17 05:32:42;;;;;;;26.27;11.48;;;;;;;8.99;83.07;100845.47;5033600;28;20096;-79
2022/03/17 05:35:09;;;;;;;25.15;10.15;;;;;;;8.91;82.91;100855.47;5034191;28;20368;-78
2022/03/17 05:37:35;;;;;;;;;;;;;;;8.92;83.41;100875.97;5016463;28;20022;-79
2022/03/17 05:40:04;;;;;;;28.23;11.15;;;;;;;8.81;83.98;100876.38;5034032;28;20405;-78
2022/03/17 05:42:31;;;;;;;25.98;10.82;;;;;;;8.75;84.57;100885.19;5033267;28;20049;-77
2022/03/17 05:44:56;;;;;;;27.58;11.18;;;;;;;8.72;85.47;100885.56;5033130;28;20029;-81
2022/03/17 05:47:22;;;;;;;26.52;11.27;;;;;;;8.69;86.33;100889.44;5033101;28;20491;-76
2022/03/17 05:49:48;;;;;;;28.52;12.55;;;;;;;8.60;86.77;100898.56;5033270;28;20040;-76
2022/03/17 05:52:14;;;;;;;33.83;11.98;;;;;;;8.63;87.65;100901.72;5033755;28;20037;-78
2022/03/17 05:54:39;;;;;;;25.17;10.65;;;;;;;8.59;87.63;100907.66;5034159;28;20040;-76
2022/03/17 05:57:04;;;;;;;30.52;12.00;;;;;;;8.67;87.96;100916.47;5037594;28;20038;-77
2022/03/17 05:59:30;;;;;;;31.88;12.13;;;;;;;8.63;88.87;100920.53;5036601;28;20028;-76
2022/03/17 06:01:56;;;;;;;27.83;12.10;;;;;;;8.54;89.43;100935.06;5036497;28;20522;-78
2022/03/17 06:04:21;;;;;;;24.60;11.25;;;;;;;8.53;90.30;100944.13;5036662;28;20771;-78
2022/03/17 06:06:46;;;;;;;29.53;13.07;;;;;;;8.52;90.72;100939.75;5037016;28;20571;-77
2022/03/17 06:09:12;;;;;;;31.63;13.43;;;;;;;8.49;91.46;100950.03;5037058;28;20029;-77
2022/03/17 06:11:37;;;;;;;29.57;11.40;;;;;;;8.40;91.93;100961.84;5036540;28;20279;-78
2022/03/17 06:14:02;;;;;;;27.90;11.87;;;;;;;8.37;92.53;100963.03;5036481;28;20256;-78
2022/03/17 06:16:28;;;;;;;33.73;13.50;;;;;;;8.34;92.82;100958.00;5035539;28;20271;-78
2022/03/17 06:18:53;;;;;;;27.95;12.30;;;;;;;8.32;93.25;100970.78;5037332;28;20022;-78
2022/03/17 06:21:18;;;;;;;31.17;13.83;;;;;;;8.41;93.81;100975.09;5039604;28;20045;-77
2022/03/17 06:23:44;;;;;;;30.73;12.77;;;;;;;8.42;93.94;100979.44;5038482;28;20257;-78
2022/03/17 06:26:10;;;;;;;;;;;;;;;8.44;93.83;100998.88;5038368;28;20029;-78
2022/03/17 06:28:35;;;;;;;29.25;10.77;;;;;;;8.39;94.17;100993.25;5038438;28;19913;-77
2022/03/17 06:31:01;;;;;;;27.20;13.67;;;;;;;8.41;94.66;100996.59;5037378;28;20393;-78
2022/03/17 06:33:28;;;;;;;27.75;11.60;;;;;;;8.39;94.90;101012.03;5038401;28;20269;-79
2022/03/17 06:35:54;;;;;;;27.38;11.43;;;;;;;8.39;96.11;101030.00;5040201;28;20029;-80
2022/03/17 06:38:20;;;;;;;28.48;10.93;;;;;;;8.22;95.86;101031.88;5037436;28;20040;-81
2022/03/17 06:40:46;;;;;;;33.30;13.13;;;;;;;8.08;95.75;101036.13;5039675;28;20387;-80
2022/03/17 06:43:14;;;;;;;33.67;13.18;;;;;;;7.87;95.64;101044.78;5037543;28;20032;-80
2022/03/17 06:45:40;;;;;;;38.65;11.95;;;;;;;7.76;96.15;101060.38;5038911;28;20088;-81
2022/03/17 06:48:05;;;;;;;28.90;11.95;;;;;;;7.67;96.64;101064.94;5038622;28;20487;-80
2022/03/17 06:50:30;;;;;;;27.73;11.23;;;;;;;7.63;96.73;101067.09;5040398;28;20034;-81
2022/03/17 06:52:56;;;;;;;29.02;12.10;;;;;;;7.63;97.17;101074.31;5042339;28;20475;-79
2022/03/17 06:55:21;;;;;;;32.83;13.37;;;;;;;7.64;97.29;101087.56;5041946;28;20123;-79
2022/03/17 06:57:47;;;;;;;31.17;11.45;;;;;;;7.63;97.89;101090.41;5039921;28;20060;-78
2022/03/17 07:00:14;;;;;;;29.90;11.97;;;;;;;7.56;97.85;101100.13;5039968;28;20033;-80
2022/03/17 07:02:40;;;;;;;31.25;11.23;;;;;;;7.44;97.42;101096.97;5038486;28;20607;-77
2022/03/17 07:05:06;;;;;;;30.58;11.02;;;;;;;7.40;97.57;101110.84;5039884;28;20043;-78
2022/03/17 07:07:32;;;;;;;28.45;9.95;;;;;;;7.35;97.63;101116.72;5038782;28;20114;-78
2022/03/17 07:09:58;;;;;;;30.45;9.95;;;;;;;7.33;97.81;101124.13;5039697;28;20101;-79
2022/03/17 07:12:23;;;;;;;26.77;8.07;;;;;;;7.21;97.21;101134.31;5038688;28;20033;-81
2022/03/17 07:14:49;;;;;;;29.85;9.63;;;;;;;7.15;97.57;101121.59;5039025;28;20083;-79
2022/03/17 07:17:22;;;;;;;26.83;8.20;;;;;;;7.12;97.43;101134.47;5038332;28;20034;-80
2022/03/17 07:22:26;;;;;;;17.88;7.50;;;;;;;7.05;97.62;101157.56;5039335;28;20115;-81
2022/03/17 07:24:53;;;;;;;17.52;6.57;;;;;;;7.01;97.53;101159.72;5039233;28;20392;-82
2022/03/17 07:27:21;;;;;;;17.42;7.38;;;;;;;6.96;97.38;101168.28;5040099;28;20036;-81
2022/03/17 07:29:46;;;;;;;19.17;7.85;;;;;;;6.94;98.24;101166.75;5041421;28;20069;-82
2022/03/17 07:32:12;;;;;;;22.08;7.47;;;;;;;6.91;98.16;101175.94;5042494;28;20392;-82
2022/03/17 07:34:37;;;;;;;27.93;10.57;;;;;;;6.97;98.42;101188.72;5041235;28;20037;-80
2022/03/17 07:37:03;;;;;;;25.90;10.23;;;;;;;6.96;98.23;101200.44;5022167;28;20370;-79
2022/03/17 07:39:28;;;;;;;28.70;10.45;;;;;;;6.88;98.09;101191.50;5040426;28;20529;-79
2022/03/17 07:41:53;;;;;;;33.87;10.87;;;;;;;6.86;97.74;101206.91;5039010;28;20029;-80
2022/03/17 07:44:20;;;;;;;29.27;10.93;;;;;;;6.80;98.27;101211.09;5044004;28;20390;-80
2022/03/17 07:46:45;;;;;;;30.63;9.85;;;;;;;6.75;98.06;101217.91;5045458;28;20013;-79
2022/03/17 07:49:10;;;;;;;28.77;10.90;;;;;;;6.66;97.84;101224.22;5044482;28;20036;-78
2022/03/17 07:51:39;;;;;;;19.63;8.65;;;;;;;6.50;96.91;101224.97;5043599;28;20030;-79
2022/03/17 07:54:05;;;;;;;21.00;8.57;;;;;;;6.47;97.22;101244.03;5041193;28;20398;-80
2022/03/17 07:56:30;;;;;;;21.80;8.93;;;;;;;6.42;96.85;101249.88;5040759;28;20039;-82
2022/03/17 07:58:56;;;;;;;17.48;6.78;;;;;;;6.33;96.48;101248.13;5040831;28;20411;-80
2022/03/17 08:01:24;;;;;;;18.50;5.82;;;;;;;6.28;96.06;101250.41;5039507;28;20033;-79
2022/03/17 08:03:50;;;;;;;17.63;6.30;;;;;;;6.32;96.49;101261.66;5039026;28;20040;-78
2022/03/17 08:06:17;;;;;;;16.85;5.80;;;;;;;6.28;96.03;101261.97;5037912;28;20380;-79
2022/03/17 08:08:43;;;;;;;13.80;4.90;;;;;;;6.33;96.23;101272.22;5036175;28;20030;-79
2022/03/17 08:11:08;;;;;;;19.00;4.75;;;;;;;6.32;95.68;101275.03;5037428;28;20384;-78
2022/03/17 08:13:34;;;;;;;16.97;4.33;;;;;;;6.23;95.12;101285.72;5037538;28;20057;-81
2022/03/17 08:16:01;;;;;;;12.20;4.53;;;;;;;6.18;94.97;101281.81;5038247;28;20387;-78
2022/03/17 08:18:26;;;;;;;14.05;4.88;;;;;;;6.14;94.33;101291.13;5037468;28;20280;-78
2022/03/17 08:20:54;;;;;;;14.60;4.77;;;;;;;6.11;94.75;101302.13;5038813;28;20039;-81
2022/03/17 08:23:21;;;;;;;13.00;3.85;;;;;;;6.11;94.52;101310.16;5038190;28;20275;-81
2022/03/17 08:25:48;;;;;;;14.55;3.75;;;;;;;6.05;94.00;101314.31;5039656;28;20456;-79
2022/03/17 08:28:14;;;;;;;11.60;4.55;;;;;;;6.05;93.65;101319.66;5040027;28;20033;-83
2022/03/17 08:30:39;;;;;;;16.67;4.93;;;;;;;6.09;94.28;101312.19;5040369;28;20040;-81
2022/03/17 08:33:05;;;;;;;9.57;4.30;;;;;;;6.06;93.40;101320.50;5039934;28;20041;-81
2022/03/17 08:35:30;;;;;;;9.48;4.20;;;;;;;6.09;94.22;101320.22;5040094;28;20120;-81
2022/03/17 08:37:59;;;;;;;8.88;3.83;;;;;;;6.12;93.45;101338.59;5040682;28;20056;-80
2022/03/17 08:40:24;;;;;;;10.75;5.00;;;;;;;6.12;94.00;101338.59;5040152;28;20116;-81
2022/03/17 08:42:49;;;;;;;8.88;3.55;;;;;;;6.15;93.53;101339.16;5040100;28;20115;-79
2022/03/17 08:50:54;;;;;;;9.05;3.42;;;;;;;6.24;91.84;101358.81;5037614;28;20059;-80
2022/03/17 08:53:19;;;;;;;;;;;;;;;6.20;91.26;101350.25;5037628;28;20036;-80
2022/03/17 08:55:45;;;;;;;10.65;2.33;;;;;;;6.16;90.54;101361.41;5036014;28;19913;-78
2022/03/17 08:58:10;;;;;;;5.37;2.30;;;;;;;6.13;90.44;101367.03;5037003;28;20037;-81
2022/03/17 09:00:36;;;;;;;6.68;2.08;;;;;;;6.12;90.21;101376.91;5036729;28;20042;-79
2022/03/17 09:03:06;;;;;;;5.53;2.20;;;;;;;6.13;90.86;101383.09;5036278;28;20033;-80
2022/03/17 09:05:33;;;;;;;12.23;3.05;;;;;;;6.19;90.51;101388.69;5033635;28;20091;-79
2022/03/17 09:07:59;;;;;;;7.38;2.42;;;;;;;6.22;91.30;101390.22;5033400;28;20045;-78
2022/03/17 09:10:25;;;;;;;7.88;2.92;;;;;;;6.38;92.09;101395.72;5032250;28;20040;-78
2022/03/17 09:12:55;;;;;;;7.70;2.72;;;;;;;6.47;91.71;101407.34;5033082;28;20421;-77
2022/03/17 09:15:21;;;;;;;8.40;2.10;;;;;;;6.66;92.41;101401.81;5033730;28;20174;-77
2022/03/17 09:17:47;;;;;;;7.07;2.25;;;;;;;6.72;92.00;101403.03;5034670;28;20029;-79
2022/03/17 09:20:15;;;;;;;12.02;2.90;;;;;;;6.72;91.92;101406.53;5034914;28;20032;-78
2022/03/17 09:22:44;;;;;;;5.80;2.78;;;;;;;6.98;93.09;101406.59;5036689;28;20033;-79
2022/03/17 09:25:11;;;;;;;5.25;2.55;;;;;;;7.03;91.21;101412.28;5034807;28;20391;-79
2022/03/17 09:27:37;;;;;;;8.30;3.00;;;;;;;6.95;90.60;101425.66;5034819;28;20033;-79
2022/03/17 09:30:03;;;;;;;6.80;2.67;;;;;;;6.98;91.26;101425.34;5034711;28;20352;-80
2022/03/17 09:32:28;;;;;;;6.88;2.90;;;;;;;6.98;90.97;101425.34;5038795;28;20041;-80
2022/03/17 09:34:54;;;;;;;11.03;3.80;;;;;;;6.86;91.33;101431.91;5038320;28;20025;-79
2022/03/17 09:37:19;;;;;;;6.60;2.33;;;;;;;6.67;89.43;101429.44;5039119;28;20092;-79
2022/03/17 09:39:47;;;;;;;10.32;3.00;;;;;;;6.65;90.76;101442.97;5039205;28;20363;-79
2022/03/17 09:42:15;;;;;;;8.60;3.35;;;;;;;6.63;89.80;101443.13;5038772;28;20093;-80
2022/03/17 09:44:42;;;;;;;8.32;2.85;;;;;;;6.65;90.32;101447.47;5039375;28;20125;-80
2022/03/17 09:47:09;;;;;;;15.23;2.85;;;;;;;6.58;89.57;101453.47;5040290;28;20167;-80
2022/03/17 09:49:37;;;;;;;7.57;2.97;;;;;;;6.57;89.61;101458.97;5039176;28;20471;-80
2022/03/17 09:52:10;;;;;;;9.18;3.72;;;;;;;6.59;89.94;101460.53;5021790;28;20091;-80
2022/03/17 09:54:37;;;;;;;9.88;3.60;;;;;;;6.66;88.49;101460.72;5039643;28;20037;-81
2022/03/17 09:57:03;;;;;;;9.75;3.20;;;;;;;6.57;88.27;101465.19;5038914;28;20029;-80
2022/03/17 09:59:29;;;;;;;11.43;2.90;;;;;;;6.54;88.96;101465.47;5041551;28;20029;-79
2022/03/17 10:01:57;;;;;;;6.57;2.30;;;;;;;6.58;89.12;101474.91;5041472;28;20456;-80
2022/03/17 10:04:23;;;;;;;11.00;2.90;;;;;;;6.59;88.58;101473.91;5039836;28;20033;-80
2022/03/17 10:06:53;;;;;;;7.45;3.35;;;;;;;6.63;88.16;101484.31;5041449;28;20464;-80
2022/03/17 10:09:19;;;;;;;8.00;2.40;;;;;;;6.60;87.76;101478.28;5040941;28;20101;-80
2022/03/17 10:11:44;;;;;;;7.78;2.72;;;;;;;6.62;86.81;101494.19;5039300;28;20093;-82
2022/03/17 10:14:09;;;;;;;8.90;3.10;;;;;;;6.59;86.92;101495.31;5039252;28;20076;-80
2022/03/17 10:16:39;;;;;;;6.70;2.07;;;;;;;6.60;87.38;101507.72;5040368;28;20260;-80
2022/03/17 10:19:07;;;;;;;4.80;1.98;;;;;;;6.70;87.12;101496.06;5041352;28;20033;-80
2022/03/17 10:21:34;;;;;;;7.55;2.58;;;;;;;6.79;87.37;101513.91;5040173;28;20395;-79
2022/03/17 10:24:01;;;;;;;;;;;;;;;6.85;85.92;101513.28;5039479;28;20038;-80
2022/03/17 10:26:34;;;;;;;4.88;2.00;;;;;;;6.90;85.38;101521.72;5040428;28;20051;-80
2022/03/17 10:29:17;;;;;;;7.20;2.50;;;;;;;6.91;83.78;101523.41;5038584;28;20127;-80
2022/03/17 10:32:02;;;;;;;6.68;2.03;;;;;;;6.92;84.61;101522.41;5039735;28;20477;-81
2022/03/17 10:34:33;;;;;;;6.35;1.88;;;;;;;6.99;84.85;101534.16;5039762;28;20037;-80
2022/03/17 10:37:18;;;;;;;7.50;1.92;;;;;;;7.03;84.85;101546.28;5039849;28;20116;-79
2022/03/17 10:39:55;;;;;;;8.73;1.70;;;;;;;7.03;82.76;101540.91;5039011;28;20468;-81
2022/03/17 10:42:21;;;;;;;6.03;1.58;;;;;;;6.96;81.83;101547.91;5037410;28;20037;-80
2022/03/17 10:44:49;;;;;;;7.05;2.00;;;;;;;6.97;82.50;101546.91;5039278;28;20068;-79
2022/03/17 10:47:29;;;;;;;4.13;1.60;;;;;;;7.00;82.13;101551.94;5037870;28;20508;-80
2022/03/17 10:50:08;;;;;;;5.40;1.63;;;;;;;7.03;82.77;101554.31;5038244;28;20068;-80
2022/03/17 10:52:57;;;;;;;4.40;1.67;;;;;;;7.15;82.99;101560.28;5039465;28;20040;-79
2022/03/17 10:55:33;;;;;;;5.30;1.23;;;;;;;7.28;82.34;101569.59;5039523;28;20387;-80
2022/03/17 10:58:20;;;;;;;3.42;1.55;;;;;;;7.34;82.85;101572.69;5021056;28;20048;-79
2022/03/17 11:00:53;;;;;;;5.40;1.30;;;;;;;7.39;81.20;101578.38;5039319;28;20112;-80
2022/03/17 11:03:20;;;;;;;3.90;1.02;;;;;;;7.29;79.90;101587.38;5039372;28;20038;-80
2022/03/17 11:05:45;;;;;;;4.20;1.33;;;;;;;7.25;79.26;101591.38;5039271;28;20034;-80
2022/03/17 11:08:11;;;;;;;6.32;1.55;;;;;;;7.20;79.06;101596.34;5038936;28;20128;-78
2022/03/17 11:10:40;;;;;;;5.68;1.90;;;;;;;7.22;79.55;101602.38;5037852;28;20034;-79
2022/03/17 11:13:11;;;;;;;3.05;0.80;;;;;;;7.17;78.92;101596.63;5038907;28;20029;-81
2022/03/17 11:15:48;;;;;;;9.40;1.88;;;;;;;7.18;81.10;101606.38;5020420;28;20104;-79
2022/03/17 11:18:17;;;;;;;2.58;1.15;;;;;;;7.21;78.83;101603.38;5038574;28;20030;-80
2022/03/17 11:20:43;;;;;;;4.00;1.20;;;;;;;7.28;79.80;101612.50;5038917;28;20029;-80
2022/03/17 11:23:16;;;;;;;3.75;1.25;;;;;;;7.36;78.79;101606.34;5021927;28;20029;-80
2022/03/17 11:25:50;;;;;;;4.88;1.27;;;;;;;7.43;78.85;101612.78;5037957;28;20045;-80
2022/03/17 11:28:16;;;;;;;4.32;1.45;;;;;;;7.42;78.97;101611.09;5038460;28;20050;-80
2022/03/17 11:30:46;;;;;;;5.38;1.40;;;;;;;7.52;79.42;101616.41;5039160;28;20040;-80
2022/03/17 11:33:28;;;;;;;7.68;1.60;;;;;;;7.74;77.65;101612.34;5038613;28;20053;-80
2022/03/17 11:35:59;;;;;;;3.33;1.10;;;;;;;7.85;76.13;101618.31;5036633;28;20033;-80
2022/03/17 11:38:32;;;;;;;8.05;1.27;;;;;;;8.01;75.09;101617.56;5037355;28;20037;-80
2022/03/17 11:41:24;;;;;;;8.45;1.35;;;;;;;8.03;74.89;101620.94;5038183;28;20440;-79